sensor_id;sensor_type;location;lat;lon;timestamp;pressure;altitude;pressure_sealevel;temperature;humidity
71105;BME280;58760;48.716;8.962;2023-12-20T00:00:23;96575.97;;;5.22;100.00
71105;BME280;58760;48.716;8.962;2023-12-20T00:02:48;96576.66;;;5.24;100.00
71105;BME280;58760;48.716;8.962;2023-12-20T00:05:14;96576.81;;;5.13;100.00
71105;BME280;58760;48.716;8.962;2023-12-20T00:07:40;96576.25;;;5.19;100.00
71105;BME280;58760;48.716;8.962;2023-12-20T00:10:05;96574.84;;;5.25;100.00
71105;BME280;58760;48.716;8.962;2023-12-20T00:12:31;96585.09;;;5.18;100.00
71105;BME280;58760;48.716;8.962;2023-12-20T00:14:56;96574.97;;;5.23;100.00
71105;BME280;58760;48.716;8.962;2023-12-20T00:17:22;96573.34;;;5.32;100.00
71105;BME280;58760;48.716;8.962;2023-12-20T00:19:47;96572.63;;;5.30;100.00
71105;BME280;58760;48.716;8.962;2023-12-20T00:22:12;96564.59;;;5.32;100.00
71105;BME280;58760;48.716;8.962;2023-12-20T00:24:38;96557.25;;;5.35;100.00
71105;BME280;58760;48.716;8.962;2023-12-20T00:27:03;96551.19;;;5.25;100.00
71105;BME280;58760;48.716;8.962;2023-12-20T00:29:29;96568.47;;;5.27;100.00
71105;BME280;58760;48.716;8.962;2023-12-20T00:31:54;96551.47;;;5.22;100.00
71105;BME280;58760;48.716;8.962;2023-12-20T00:34:19;96555.47;;;5.16;100.00
71105;BME280;58760;48.716;8.962;2023-12-20T00:36:45;96567.81;;;5.16;100.00
71105;BME280;58760;48.716;8.962;2023-12-20T00:39:10;96562.81;;;5.03;100.00
71105;BME280;58760;48.716;8.962;2023-12-20T00:41:35;96563.22;;;4.99;100.00
71105;BME280;58760;48.716;8.962;2023-12-20T00:44:01;96563.22;;;4.89;100.00
71105;BME280;58760;48.716;8.962;2023-12-20T00:46:26;96561.44;;;4.90;100.00
71105;BME280;58760;48.716;8.962;2023-12-20T00:48:51;96564.34;;;4.96;100.00
71105;BME280;58760;48.716;8.962;2023-12-20T00:51:17;96560.75;;;4.88;100.00
71105;BME280;58760;48.716;8.962;2023-12-20T00:53:42;96567.91;;;4.95;100.00
71105;BME280;58760;48.716;8.962;2023-12-20T00:56:08;96569.59;;;4.96;100.00
71105;BME280;58760;48.716;8.962;2023-12-20T00:58:33;96575.81;;;4.86;100.00
71105;BME280;58760;48.716;8.962;2023-12-20T01:00:59;96571.94;;;4.80;100.00
71105;BME280;58760;48.716;8.962;2023-12-20T01:03:24;96585.06;;;4.70;100.00
71105;BME280;58760;48.716;8.962;2023-12-20T01:05:49;96589.09;;;4.74;100.00
71105;BME280;58760;48.716;8.962;2023-12-20T01:08:15;96588.53;;;4.71;100.00
71105;BME280;58760;48.716;8.962;2023-12-20T01:10:40;96596.78;;;4.57;100.00
71105;BME280;58760;48.716;8.962;2023-12-20T01:13:06;96595.66;;;4.50;100.00
71105;BME280;58760;48.716;8.962;2023-12-20T01:15:31;96589.56;;;4.59;100.00
71105;BME280;58760;48.716;8.962;2023-12-20T01:17:56;96599.31;;;4.68;100.00
71105;BME280;58760;48.716;8.962;2023-12-20T01:20:24;96602.47;;;4.71;100.00
71105;BME280;58760;48.716;8.962;2023-12-20T01:22:49;96606.91;;;4.71;100.00
71105;BME280;58760;48.716;8.962;2023-12-20T01:25:14;96606.78;;;4.72;100.00
71105;BME280;58760;48.716;8.962;2023-12-20T01:27:40;96600.84;;;4.80;100.00
71105;BME280;58760;48.716;8.962;2023-12-20T01:30:06;96613.56;;;4.85;100.00
71105;BME280;58760;48.716;8.962;2023-12-20T01:32:31;96607.50;;;4.84;100.00
71105;BME280;58760;48.716;8.962;2023-12-20T01:34:56;96608.59;;;4.91;100.00
71105;BME280;58760;48.716;8.962;2023-12-20T01:37:22;96610.81;;;4.86;100.00
71105;BME280;58760;48.716;8.962;2023-12-20T01:39:49;96616.47;;;4.91;100.00
71105;BME280;58760;48.716;8.962;2023-12-20T01:42:14;96617.59;;;4.98;100.00
71105;BME280;58760;48.716;8.962;2023-12-20T01:44:39;96620.13;;;5.00;100.00
71105;BME280;58760;48.716;8.962;2023-12-20T01:47:05;96620.13;;;5.00;100.00
71105;BME280;58760;48.716;8.962;2023-12-20T01:49:30;96620.13;;;5.00;100.00
71105;BME280;58760;48.716;8.962;2023-12-20T01:51:56;96619.69;;;5.04;100.00
71105;BME280;58760;48.716;8.962;2023-12-20T01:54:22;96610.16;;;5.03;100.00
71105;BME280;58760;48.716;8.962;2023-12-20T01:56:48;96612.06;;;5.11;100.00
71105;BME280;58760;48.716;8.962;2023-12-20T01:59:14;96608.22;;;5.24;100.00
71105;BME280;58760;48.716;8.962;2023-12-20T02:01:42;96611.81;;;5.23;100.00
71105;BME280;58760;48.716;8.962;2023-12-20T02:04:08;96602.28;;;5.22;100.00
71105;BME280;58760;48.716;8.962;2023-12-20T02:06:33;96608.78;;;5.18;100.00
71105;BME280;58760;48.716;8.962;2023-12-20T02:08:59;96607.25;;;5.16;100.00
71105;BME280;58760;48.716;8.962;2023-12-20T02:11:25;96602.41;;;5.11;100.00
71105;BME280;58760;48.716;8.962;2023-12-20T02:13:51;96608.66;;;5.10;100.00
71105;BME280;58760;48.716;8.962;2023-12-20T02:16:17;96607.81;;;5.19;100.00
71105;BME280;58760;48.716;8.962;2023-12-20T02:18:43;96607.25;;;5.16;100.00
71105;BME280;58760;48.716;8.962;2023-12-20T02:21:09;96602.13;;;5.14;100.00
71105;BME280;58760;48.716;8.962;2023-12-20T02:23:35;96617.22;;;5.12;100.00
71105;BME280;58760;48.716;8.962;2023-12-20T02:26:00;96608.66;;;5.10;100.00
71105;BME280;58760;48.716;8.962;2023-12-20T02:28:26;96612.06;;;5.11;100.00
71105;BME280;58760;48.716;8.962;2023-12-20T02:30:52;96604.91;;;5.13;100.00
71105;BME280;58760;48.716;8.962;2023-12-20T02:33:17;96596.28;;;5.11;100.00
71105;BME280;58760;48.716;8.962;2023-12-20T02:35:42;96597.97;;;5.12;100.00
71105;BME280;58760;48.716;8.962;2023-12-20T02:38:08;96592.97;;;4.99;100.00
71105;BME280;58760;48.716;8.962;2023-12-20T02:40:33;96595.34;;;5.12;100.00
71105;BME280;58760;48.716;8.962;2023-12-20T02:42:58;96590.34;;;5.09;100.00
71105;BME280;58760;48.716;8.962;2023-12-20T02:45:24;96600.19;;;5.07;100.00
71105;BME280;58760;48.716;8.962;2023-12-20T02:47:50;96601.72;;;5.09;100.00
71105;BME280;58760;48.716;8.962;2023-12-20T02:50:15;96601.81;;;4.98;100.00
71105;BME280;58760;48.716;8.962;2023-12-20T02:52:44;96596.84;;;5.14;100.00
71105;BME280;58760;48.716;8.962;2023-12-20T02:55:10;96596.00;;;5.04;100.00
71105;BME280;58760;48.716;8.962;2023-12-20T02:57:35;96599.19;;;4.98;100.00
71105;BME280;58760;48.716;8.962;2023-12-20T03:00:01;96600.88;;;4.99;100.00
71105;BME280;58760;48.716;8.962;2023-12-20T03:02:27;96604.16;;;4.92;100.00
71105;BME280;58760;48.716;8.962;2023-12-20T03:04:52;96604.34;;;5.00;100.00
71105;BME280;58760;48.716;8.962;2023-12-20T03:07:17;96605.97;;;5.01;100.00
71105;BME280;58760;48.716;8.962;2023-12-20T03:09:43;96611.38;;;4.99;100.00
71105;BME280;58760;48.716;8.962;2023-12-20T03:12:08;96607.66;;;5.11;100.00
71105;BME280;58760;48.716;8.962;2023-12-20T03:14:33;96603.91;;;5.14;100.00
71105;BME280;58760;48.716;8.962;2023-12-20T03:16:59;96611.28;;;5.10;100.00
71105;BME280;58760;48.716;8.962;2023-12-20T03:19:24;96620.41;;;5.06;100.00
71105;BME280;58760;48.716;8.962;2023-12-20T03:21:50;96618.16;;;5.11;100.00
71105;BME280;58760;48.716;8.962;2023-12-20T03:24:15;96623.31;;;5.03;100.00
71105;BME280;58760;48.716;8.962;2023-12-20T03:26:40;96626.59;;;4.96;100.00
71105;BME280;58760;48.716;8.962;2023-12-20T03:29:06;96627.28;;;4.88;100.00
71105;BME280;58760;48.716;8.962;2023-12-20T03:31:31;96623.13;;;4.86;100.00
71105;BME280;58760;48.716;8.962;2023-12-20T03:33:56;96635.00;;;4.80;100.00
71105;BME280;58760;48.716;8.962;2023-12-20T03:36:22;96632.50;;;4.79;100.00
71105;BME280;58760;48.716;8.962;2023-12-20T03:38:47;96628.50;;;4.74;100.00
71105;BME280;58760;48.716;8.962;2023-12-20T03:41:13;96642.72;;;4.72;100.00
71105;BME280;58760;48.716;8.962;2023-12-20T03:43:38;96637.19;;;4.75;100.00
71105;BME280;58760;48.716;8.962;2023-12-20T03:46:03;96645.81;;;4.77;100.00
71105;BME280;58760;48.716;8.962;2023-12-20T03:48:30;96646.06;;;4.74;100.00
71105;BME280;58760;48.716;8.962;2023-12-20T03:50:56;96645.25;;;4.73;100.00
71105;BME280;58760;48.716;8.962;2023-12-20T03:53:22;96647.72;;;4.75;100.00
71105;BME280;58760;48.716;8.962;2023-12-20T03:55:47;96643.56;;;4.72;100.00
71105;BME280;58760;48.716;8.962;2023-12-20T03:58:13;96641.38;;;4.78;100.00
71105;BME280;58760;48.716;8.962;2023-12-20T04:00:38;96632.94;;;4.74;100.00
71105;BME280;58760;48.716;8.962;2023-12-20T04:03:04;96638.31;;;4.72;100.00
71105;BME280;58760;48.716;8.962;2023-12-20T04:05:29;96646.47;;;4.69;100.00
71105;BME280;58760;48.716;8.962;2023-12-20T04:07:54;96642.44;;;4.65;100.00
71105;BME280;58760;48.716;8.962;2023-12-20T04:10:20;96645.22;;;4.64;100.00
71105;BME280;58760;48.716;8.962;2023-12-20T04:12:46;96632.34;;;4.61;100.00
71105;BME280;58760;48.716;8.962;2023-12-20T04:15:11;96636.34;;;4.65;100.00
71105;BME280;58760;48.716;8.962;2023-12-20T04:17:37;96639.09;;;4.54;100.00
71105;BME280;58760;48.716;8.962;2023-12-20T04:20:03;96642.41;;;4.56;100.00
71105;BME280;58760;48.716;8.962;2023-12-20T04:22:28;96649.31;;;4.57;100.00
71105;BME280;58760;48.716;8.962;2023-12-20T04:24:53;96655.72;;;4.64;100.00
71105;BME280;58760;48.716;8.962;2023-12-20T04:27:19;96660.69;;;4.57;100.00
71105;BME280;58760;48.716;8.962;2023-12-20T04:29:44;96654.16;;;4.52;100.00
71105;BME280;58760;48.716;8.962;2023-12-20T04:32:10;96660.63;;;4.48;100.00
71105;BME280;58760;48.716;8.962;2023-12-20T04:34:36;96644.16;;;4.46;100.00
71105;BME280;58760;48.716;8.962;2023-12-20T04:37:01;96662.28;;;4.49;100.00
71105;BME280;58760;48.716;8.962;2023-12-20T04:39:26;96663.13;;;4.49;100.00
71105;BME280;58760;48.716;8.962;2023-12-20T04:41:52;96663.97;;;4.50;100.00
71105;BME280;58760;48.716;8.962;2023-12-20T04:44:17;96680.16;;;4.55;100.00
71105;BME280;58760;48.716;8.962;2023-12-20T04:46:43;96677.28;;;4.58;100.00
71105;BME280;58760;48.716;8.962;2023-12-20T04:49:08;96668.38;;;4.49;100.00
71105;BME280;58760;48.716;8.962;2023-12-20T04:51:34;96668.38;;;4.49;100.00
71105;BME280;58760;48.716;8.962;2023-12-20T04:54:00;96674.78;;;4.56;100.00
71105;BME280;58760;48.716;8.962;2023-12-20T04:56:25;96681.69;;;4.57;100.00
71105;BME280;58760;48.716;8.962;2023-12-20T04:58:51;96668.13;;;4.62;100.00
71105;BME280;58760;48.716;8.962;2023-12-20T05:01:16;96674.19;;;4.53;100.00
71105;BME280;58760;48.716;8.962;2023-12-20T05:03:42;96670.03;;;4.50;100.00
71105;BME280;58760;48.716;8.962;2023-12-20T05:06:07;96679.34;;;4.54;100.00
71105;BME280;58760;48.716;8.962;2023-12-20T05:08:33;96675.19;;;4.52;100.00
71105;BME280;58760;48.716;8.962;2023-12-20T05:10:58;96670.34;;;4.57;100.00
71105;BME280;58760;48.716;8.962;2023-12-20T05:13:24;96680.44;;;4.52;100.00
71105;BME280;58760;48.716;8.962;2023-12-20T05:15:50;96690.50;;;4.47;100.00
71105;BME280;58760;48.716;8.962;2023-12-20T05:18:16;96696.53;;;4.38;100.00
71105;BME280;58760;48.716;8.962;2023-12-20T05:20:41;96700.00;;;4.38;100.00
71105;BME280;58760;48.716;8.962;2023-12-20T05:23:06;96701.91;;;4.36;100.00
71105;BME280;58760;48.716;8.962;2023-12-20T05:25:32;96701.53;;;4.41;100.00
71105;BME280;58760;48.716;8.962;2023-12-20T05:27:57;96711.66;;;4.45;100.00
71105;BME280;58760;48.716;8.962;2023-12-20T05:30:23;96706.78;;;4.41;100.00
71105;BME280;58760;48.716;8.962;2023-12-20T05:32:48;96722.59;;;4.50;100.00
71105;BME280;58760;48.716;8.962;2023-12-20T05:35:14;96728.09;;;4.47;100.00
71105;BME280;58760;48.716;8.962;2023-12-20T05:37:40;96728.38;;;4.44;100.00
71105;BME280;58760;48.716;8.962;2023-12-20T05:40:06;96720.91;;;4.49;100.00
71105;BME280;58760;48.716;8.962;2023-12-20T05:42:35;96719.28;;;4.48;100.00
71105;BME280;58760;48.716;8.962;2023-12-20T05:45:00;96735.84;;;4.49;100.00
71105;BME280;58760;48.716;8.962;2023-12-20T05:47:26;96731.31;;;4.51;100.00
71105;BME280;58760;48.716;8.962;2023-12-20T05:49:51;96736.16;;;4.55;100.00
71105;BME280;58760;48.716;8.962;2023-12-20T05:52:17;96740.88;;;4.52;100.00
71105;BME280;58760;48.716;8.962;2023-12-20T05:54:42;96734.91;;;4.50;100.00
71105;BME280;58760;48.716;8.962;2023-12-20T05:57:07;96734.78;;;4.51;100.00
71105;BME280;58760;48.716;8.962;2023-12-20T05:59:33;96742.78;;;4.50;100.00
71105;BME280;58760;48.716;8.962;2023-12-20T06:01:58;96745.97;;;4.53;100.00
71105;BME280;58760;48.716;8.962;2023-12-20T06:04:24;96758.28;;;4.53;100.00
71105;BME280;58760;48.716;8.962;2023-12-20T06:06:49;96766.16;;;4.53;100.00
71105;BME280;58760;48.716;8.962;2023-12-20T06:09:14;96771.31;;;4.54;100.00
71105;BME280;58760;48.716;8.962;2023-12-20T06:11:40;96760.91;;;4.53;100.00
71105;BME280;58760;48.716;8.962;2023-12-20T06:14:06;96753.03;;;4.53;100.00
71105;BME280;58760;48.716;8.962;2023-12-20T06:16:31;96759.81;;;4.55;100.00
71105;BME280;58760;48.716;8.962;2023-12-20T06:18:57;96761.38;;;4.58;100.00
71105;BME280;58760;48.716;8.962;2023-12-20T06:21:22;96764.94;;;4.57;100.00
71105;BME280;58760;48.716;8.962;2023-12-20T06:23:47;96768.53;;;4.56;100.00
71105;BME280;58760;48.716;8.962;2023-12-20T06:26:13;96762.31;;;4.57;100.00
71105;BME280;58760;48.716;8.962;2023-12-20T06:28:38;96766.47;;;4.59;100.00
71105;BME280;58760;48.716;8.962;2023-12-20T06:31:03;96772.56;;;4.60;100.00
71105;BME280;58760;48.716;8.962;2023-12-20T06:33:29;96773.41;;;4.60;100.00
71105;BME280;58760;48.716;8.962;2023-12-20T06:35:56;96774.09;;;4.62;100.00
71105;BME280;58760;48.716;8.962;2023-12-20T06:38:21;96766.69;;;4.47;100.00
71105;BME280;58760;48.716;8.962;2023-12-20T06:40:46;96764.09;;;4.56;100.00
71105;BME280;58760;48.716;8.962;2023-12-20T06:43:12;96760.22;;;4.51;100.00
71105;BME280;58760;48.716;8.962;2023-12-20T06:45:38;96767.53;;;4.47;100.00
71105;BME280;58760;48.716;8.962;2023-12-20T06:48:04;96773.09;;;4.33;100.00
71105;BME280;58760;48.716;8.962;2023-12-20T06:50:30;96782.50;;;4.36;100.00
71105;BME280;58760;48.716;8.962;2023-12-20T06:52:55;96780.78;;;4.46;100.00
71105;BME280;58760;48.716;8.962;2023-12-20T06:55:21;96788.72;;;4.55;100.00
71105;BME280;58760;48.716;8.962;2023-12-20T06:57:46;96792.75;;;4.59;100.00
71105;BME280;58760;48.716;8.962;2023-12-20T07:00:12;96795.69;;;4.66;100.00
71105;BME280;58760;48.716;8.962;2023-12-20T07:02:37;96793.59;;;4.60;100.00
71105;BME280;58760;48.716;8.962;2023-12-20T07:05:03;96800.91;;;4.56;100.00
71105;BME280;58760;48.716;8.962;2023-12-20T07:07:29;96798.69;;;4.52;100.00
71105;BME280;58760;48.716;8.962;2023-12-20T07:09:55;96808.97;;;4.44;100.00
71105;BME280;58760;48.716;8.962;2023-12-20T07:12:20;96802.00;;;4.54;100.00
71105;BME280;58760;48.716;8.962;2023-12-20T07:14:46;96808.16;;;4.64;100.00
71105;BME280;58760;48.716;8.962;2023-12-20T07:17:11;96811.09;;;4.70;100.00
71105;BME280;58760;48.716;8.962;2023-12-20T07:19:39;96830.91;;;4.74;100.00
71105;BME280;58760;48.716;8.962;2023-12-20T07:22:06;96829.97;;;4.85;100.00
71105;BME280;58760;48.716;8.962;2023-12-20T07:24:32;96831.75;;;4.85;100.00
71105;BME280;58760;48.716;8.962;2023-12-20T07:26:59;96840.09;;;4.90;100.00
71105;BME280;58760;48.716;8.962;2023-12-20T07:29:24;96843.31;;;4.93;100.00
71105;BME280;58760;48.716;8.962;2023-12-20T07:31:49;96836.25;;;4.94;100.00
71105;BME280;58760;48.716;8.962;2023-12-20T07:34:17;96847.72;;;4.93;100.00
71105;BME280;58760;48.716;8.962;2023-12-20T07:36:42;96841.47;;;4.84;100.00
71105;BME280;58760;48.716;8.962;2023-12-20T07:39:08;96837.28;;;4.82;100.00
71105;BME280;58760;48.716;8.962;2023-12-20T07:41:33;96842.69;;;4.80;100.00
71105;BME280;58760;48.716;8.962;2023-12-20T07:43:58;96845.84;;;4.74;100.00
71105;BME280;58760;48.716;8.962;2023-12-20T07:46:24;96843.47;;;4.71;100.00
71105;BME280;58760;48.716;8.962;2023-12-20T07:48:49;96853.00;;;4.72;100.00
71105;BME280;58760;48.716;8.962;2023-12-20T07:51:15;96863.06;;;4.67;100.00
71105;BME280;58760;48.716;8.962;2023-12-20T07:53:41;96859.59;;;4.66;100.00
71105;BME280;58760;48.716;8.962;2023-12-20T07:56:16;96853.78;;;4.63;100.00
71105;BME280;58760;48.716;8.962;2023-12-20T07:58:42;96860.25;;;4.59;100.00
71105;BME280;58760;48.716;8.962;2023-12-20T08:01:08;96863.59;;;4.61;100.00
71105;BME280;58760;48.716;8.962;2023-12-20T08:03:33;96857.63;;;4.59;100.00
71105;BME280;58760;48.716;8.962;2023-12-20T08:05:58;96858.34;;;4.61;100.00
71105;BME280;58760;48.716;8.962;2023-12-20T08:08:25;96850.97;;;4.55;100.00
71105;BME280;58760;48.716;8.962;2023-12-20T08:10:50;96855.81;;;4.59;100.00
71105;BME280;58760;48.716;8.962;2023-12-20T08:13:16;96858.00;;;4.54;100.00
71105;BME280;58760;48.716;8.962;2023-12-20T08:15:41;96873.88;;;4.53;100.00
71105;BME280;58760;48.716;8.962;2023-12-20T08:18:06;96872.00;;;4.55;100.00
71105;BME280;58760;48.716;8.962;2023-12-20T08:20:32;96876.84;;;4.59;100.00
71105;BME280;58760;48.716;8.962;2023-12-20T08:22:57;96875.50;;;4.65;100.00
71105;BME280;58760;48.716;8.962;2023-12-20T08:25:22;96881.72;;;4.64;100.00
71105;BME280;58760;48.716;8.962;2023-12-20T08:27:48;96889.22;;;4.68;100.00
71105;BME280;58760;48.716;8.962;2023-12-20T08:30:13;96883.09;;;4.58;100.00
71105;BME280;58760;48.716;8.962;2023-12-20T08:32:38;96888.88;;;4.62;100.00
71105;BME280;58760;48.716;8.962;2023-12-20T08:35:04;96884.88;;;4.58;100.00
71105;BME280;58760;48.716;8.962;2023-12-20T08:37:30;96878.88;;;4.56;100.00
71105;BME280;58760;48.716;8.962;2023-12-20T08:39:55;96877.03;;;4.47;100.00
71105;BME280;58760;48.716;8.962;2023-12-20T08:42:21;96874.66;;;4.44;100.00
71105;BME280;58760;48.716;8.962;2023-12-20T08:44:46;96887.09;;;4.42;100.00
71105;BME280;58760;48.716;8.962;2023-12-20T08:47:12;96888.81;;;4.32;100.00
71105;BME280;58760;48.716;8.962;2023-12-20T08:49:39;96897.81;;;4.18;100.00
71105;BME280;58760;48.716;8.962;2023-12-20T08:52:05;96908.09;;;4.10;100.00
71105;BME280;58760;48.716;8.962;2023-12-20T08:54:30;96911.31;;;4.13;100.00
71105;BME280;58760;48.716;8.962;2023-12-20T08:56:56;96889.94;;;4.07;100.00
71105;BME280;58760;48.716;8.962;2023-12-20T08:59:22;96887.72;;;4.02;100.00
71105;BME280;58760;48.716;8.962;2023-12-20T09:01:47;96884.84;;;4.05;100.00
71105;BME280;58760;48.716;8.962;2023-12-20T09:04:13;96889.84;;;4.08;100.00
71105;BME280;58760;48.716;8.962;2023-12-20T09:06:38;96879.34;;;4.08;100.00
71105;BME280;58760;48.716;8.962;2023-12-20T09:09:04;96878.31;;;4.00;100.00
71105;BME280;58760;48.716;8.962;2023-12-20T09:11:29;96881.50;;;4.03;100.00
71105;BME280;58760;48.716;8.962;2023-12-20T09:13:55;96870.75;;;4.06;100.00
71105;BME280;58760;48.716;8.962;2023-12-20T09:16:20;96864.69;;;4.06;100.00
71105;BME280;58760;48.716;8.962;2023-12-20T09:18:45;96869.53;;;4.10;100.00
71105;BME280;58760;48.716;8.962;2023-12-20T09:21:11;96871.31;;;4.10;100.00
71105;BME280;58760;48.716;8.962;2023-12-20T09:23:37;96870.47;;;4.20;100.00
71105;BME280;58760;48.716;8.962;2023-12-20T09:26:04;96856.63;;;4.18;100.00
71105;BME280;58760;48.716;8.962;2023-12-20T09:28:29;96860.69;;;4.22;100.00
71105;BME280;58760;48.716;8.962;2023-12-20T09:30:55;96863.31;;;4.22;100.00
71105;BME280;58760;48.716;8.962;2023-12-20T09:33:20;96846.63;;;4.33;100.00
71105;BME280;58760;48.716;8.962;2023-12-20T09:35:45;96846.06;;;4.30;100.00
71105;BME280;58760;48.716;8.962;2023-12-20T09:38:11;96844.00;;;4.33;100.00
71105;BME280;58760;48.716;8.962;2023-12-20T09:40:41;96852.63;;;4.35;100.00
71105;BME280;58760;48.716;8.962;2023-12-20T09:43:11;96860.50;;;4.35;100.00
71105;BME280;58760;48.716;8.962;2023-12-20T09:45:38;96859.47;;;4.47;100.00
71105;BME280;58760;48.716;8.962;2023-12-20T09:48:07;96863.13;;;4.56;100.00
71105;BME280;58760;48.716;8.962;2023-12-20T09:50:32;96859.34;;;4.69;100.00
71105;BME280;58760;48.716;8.962;2023-12-20T09:53:00;96856.66;;;4.81;100.00
71105;BME280;58760;48.716;8.962;2023-12-20T09:55:27;96854.97;;;5.00;100.00
71105;BME280;58760;48.716;8.962;2023-12-20T09:57:55;96866.94;;;5.14;100.00
71105;BME280;58760;48.716;8.962;2023-12-20T10:00:21;96857.44;;;5.22;100.00
71105;BME280;58760;48.716;8.962;2023-12-20T10:02:59;96853.13;;;5.21;100.00
71105;BME280;58760;48.716;8.962;2023-12-20T10:05:29;96847.75;;;5.23;100.00
71105;BME280;58760;48.716;8.962;2023-12-20T10:07:55;96846.97;;;5.11;100.00
71105;BME280;58760;48.716;8.962;2023-12-20T10:10:20;96840.19;;;5.09;100.00
71105;BME280;58760;48.716;8.962;2023-12-20T10:13:09;96840.78;;;5.12;100.00
71105;BME280;58760;48.716;8.962;2023-12-20T10:15:35;96837.19;;;5.13;100.00
71105;BME280;58760;48.716;8.962;2023-12-20T10:18:01;96835.19;;;5.06;100.00
71105;BME280;58760;48.716;8.962;2023-12-20T10:20:27;96832.44;;;5.07;100.00
71105;BME280;58760;48.716;8.962;2023-12-20T10:22:54;96824.41;;;5.09;100.00
71105;BME280;58760;48.716;8.962;2023-12-20T10:25:20;96815.91;;;5.26;100.00
71105;BME280;58760;48.716;8.962;2023-12-20T10:27:46;96820.00;;;5.09;100.00
71105;BME280;58760;48.716;8.962;2023-12-20T10:30:12;96814.28;;;5.35;100.00
71105;BME280;58760;48.716;8.962;2023-12-20T10:32:37;96801.50;;;5.30;100.00
71105;BME280;58760;48.716;8.962;2023-12-20T10:35:03;96815.41;;;5.42;100.00
71105;BME280;58760;48.716;8.962;2023-12-20T10:37:29;96809.03;;;5.44;100.00
71105;BME280;58760;48.716;8.962;2023-12-20T10:39:54;96806.97;;;5.48;100.00
71105;BME280;58760;48.716;8.962;2023-12-20T10:42:26;96799.69;;;5.80;100.00
71105;BME280;58760;48.716;8.962;2023-12-20T10:44:52;96807.44;;;5.62;100.00
71105;BME280;58760;48.716;8.962;2023-12-20T10:47:20;96798.69;;;5.52;100.00
71105;BME280;58760;48.716;8.962;2023-12-20T10:49:46;96800.16;;;5.36;100.00
71105;BME280;58760;48.716;8.962;2023-12-20T10:52:12;96794.63;;;5.39;100.00
71105;BME280;58760;48.716;8.962;2023-12-20T10:54:39;96794.66;;;5.48;100.00
71105;BME280;58760;48.716;8.962;2023-12-20T10:57:05;96802.25;;;5.42;100.00
71105;BME280;58760;48.716;8.962;2023-12-20T10:59:33;96789.66;;;5.45;100.00
71105;BME280;58760;48.716;8.962;2023-12-20T11:02:02;96784.78;;;5.41;100.00
71105;BME280;58760;48.716;8.962;2023-12-20T11:04:37;96784.09;;;5.39;100.00
71105;BME280;58760;48.716;8.962;2023-12-20T11:07:21;96786.00;;;5.37;100.00
71105;BME280;58760;48.716;8.962;2023-12-20T11:09:58;96795.88;;;5.44;100.00
71105;BME280;58760;48.716;8.962;2023-12-20T11:12:59;96787.66;;;5.28;100.00
71105;BME280;58760;48.716;8.962;2023-12-20T11:15:27;96792.78;;;5.20;100.00
71105;BME280;58760;48.716;8.962;2023-12-20T11:17:57;96787.38;;;5.21;100.00
71105;BME280;58760;48.716;8.962;2023-12-20T11:20:24;96790.00;;;5.21;100.00
71105;BME280;58760;48.716;8.962;2023-12-20T11:23:00;96793.56;;;5.20;100.00
71105;BME280;58760;48.716;8.962;2023-12-20T11:25:26;96787.28;;;5.02;100.00
71105;BME280;58760;48.716;8.962;2023-12-20T11:28:09;96790.50;;;5.06;100.00
71105;BME280;58760;48.716;8.962;2023-12-20T11:30:52;96781.50;;;5.08;100.00
71105;BME280;58760;48.716;8.962;2023-12-20T11:33:22;96780.97;;;5.14;100.00
71105;BME280;58760;48.716;8.962;2023-12-20T11:35:47;96786.75;;;5.08;100.00
71105;BME280;58760;48.716;8.962;2023-12-20T11:38:13;96784.84;;;5.10;100.00
71105;BME280;58760;48.716;8.962;2023-12-20T11:40:41;96769.88;;;5.11;100.00
71105;BME280;58760;48.716;8.962;2023-12-20T11:43:06;96770.72;;;5.11;100.00
71105;BME280;58760;48.716;8.962;2023-12-20T11:45:32;96774.34;;;5.10;100.00
71105;BME280;58760;48.716;8.962;2023-12-20T11:47:57;96775.09;;;5.01;100.00
71105;BME280;58760;48.716;8.962;2023-12-20T11:50:24;96776.91;;;5.01;100.00
71105;BME280;58760;48.716;8.962;2023-12-20T11:52:50;96774.84;;;5.04;100.00
71105;BME280;58760;48.716;8.962;2023-12-20T11:55:17;96786.47;;;5.02;100.00
71105;BME280;58760;48.716;8.962;2023-12-20T11:57:43;96771.47;;;4.93;100.00
71105;BME280;58760;48.716;8.962;2023-12-20T12:00:08;96764.72;;;5.00;100.00
71105;BME280;58760;48.716;8.962;2023-12-20T12:02:34;96759.31;;;5.01;100.00
71105;BME280;58760;48.716;8.962;2023-12-20T12:05:00;96757.59;;;5.21;100.00
71105;BME280;58760;48.716;8.962;2023-12-20T12:07:25;96759.69;;;5.27;100.00
71105;BME280;58760;48.716;8.962;2023-12-20T12:09:51;96752.47;;;5.19;100.00
71105;BME280;58760;48.716;8.962;2023-12-20T12:12:17;96743.22;;;5.35;100.00
71105;BME280;58760;48.716;8.962;2023-12-20T12:14:44;96742.00;;;5.39;100.00
71105;BME280;58760;48.716;8.962;2023-12-20T12:17:13;96738.94;;;5.53;100.00
71105;BME280;58760;48.716;8.962;2023-12-20T12:19:43;96740.59;;;5.35;100.00
71105;BME280;58760;48.716;8.962;2023-12-20T12:22:10;96739.22;;;5.50;100.00
71105;BME280;58760;48.716;8.962;2023-12-20T12:24:44;96737.59;;;5.58;100.00
71105;BME280;58760;48.716;8.962;2023-12-20T12:27:11;96723.31;;;5.70;100.00
71105;BME280;58760;48.716;8.962;2023-12-20T12:29:37;96722.91;;;5.65;100.00
71105;BME280;58760;48.716;8.962;2023-12-20T12:32:06;96718.44;;;5.47;100.00
71105;BME280;58760;48.716;8.962;2023-12-20T12:34:33;96717.50;;;5.57;100.00
71105;BME280;58760;48.716;8.962;2023-12-20T12:37:00;96707.66;;;5.50;100.00
71105;BME280;58760;48.716;8.962;2023-12-20T12:39:25;96704.38;;;5.86;100.00
71105;BME280;58760;48.716;8.962;2023-12-20T12:41:52;96703.00;;;6.01;100.00
71105;BME280;58760;48.716;8.962;2023-12-20T12:44:17;96704.78;;;6.01;100.00
71105;BME280;58760;48.716;8.962;2023-12-20T12:46:46;96704.44;;;6.32;100.00
71105;BME280;58760;48.716;8.962;2023-12-20T12:49:12;96704.50;;;6.04;100.00
71105;BME280;58760;48.716;8.962;2023-12-20T12:51:38;96699.34;;;6.02;100.00
71105;BME280;58760;48.716;8.962;2023-12-20T12:54:03;96689.94;;;6.09;100.00